Search for airport 
image banner adimage banner adimage banner ad
image banner ad

PS15 - Vicars Private

Located in Altoona, United States

ICAO - PS15, IATA -

Data provided by Airmate  

General information

Coordinates: N40°32'51" W78°23'30"
Elevation is 1370 feet MSL.
Magnetic variation is -09° East
View others Airports in Pennsylvania

Operational data

Special qualification required
Current time UTC:
Current local time:
Weather at : KAOO - Altoona-Blair County ( 29 km )
METAR: KAOO 091700Z AUTO 06003KT 10SM FEW008 BKN014 OVC050 06/03 A2995 RMK AO2 RAE1659 P0000 T00560028
TAF: KAOO 091537Z 0916/1012 15010KT 4SM -RA BR OVC020 FM100200 34008G16KT 2SM -RA BR OVC006 WS020/21043KT FM100800 33008G15KT P6SM BKN009 OVC012
View NOTAMs / SUP AIP / TFR affecting this airport [VIEW]
Communications frequencies: [VIEW]

Runways:

RWY identifierQFULength (ft)Width (ft)SurfaceLDA (ft)
081200100GRASS
261200100GRASS

Airport contact information

Address: Altoona United States

Satellite view of PS15